Time;durP1;ratioP1;P1;durP2;ratioP2;P2;SDS_P1;SDS_P2;PMS_P1;PMS_P2;Temp;Humidity;BMP_temperature;BMP_pressure;BME280_temperature;BME280_humidity;BME280_pressure;Samples;Min_cycle;Max_cycle;Signal;HPM_P1;HPM_P2
2023/01/28 00:02:00;;;;;;;;;;;;;;;;;;5046269;28;20840;-74
2023/01/28 00:04:26;;;;;;;;;;;;;;;;;;5043184;28;19948;-78
2023/01/28 00:06:52;;;;;;;;;;;;;;;;;;5063698;28;19915;-76
2023/01/28 00:09:18;;;;;;;;;;;;;;;;;;5046460;28;19954;-75
2023/01/28 00:11:44;;;;;;;;;;;;;;;;;;5042687;28;19916;-75
2023/01/28 00:14:10;;;;;;;;;;;;;;;;;;5063579;28;19932;-75
2023/01/28 00:16:36;;;;;;;;;;;;;;;;;;5045588;28;19970;-75
2023/01/28 00:19:02;;;;;;;;;;;;;;;;;;5049119;28;19920;-77
2023/01/28 00:21:27;;;;;;;;;;;;;;;;;;5062320;28;19920;-77
2023/01/28 00:23:53;;;;;;;;;;;;;;;;;;5062552;28;19938;-75
2023/01/28 00:26:19;;;;;;;;;;;;;;;;;;5066825;28;19916;-75
2023/01/28 00:28:46;;;;;;;;;;;;;;;;;;5064555;28;19955;-76
2023/01/28 00:31:12;;;;;;;;;;;;;;;;;;5068126;28;20315;-75
2023/01/28 00:33:38;;;;;;;;;;;;;;;;;;5044003;28;19927;-76
2023/01/28 00:36:05;;;;;;;;;;;;;;;;;;5055557;28;20383;-75
2023/01/28 00:38:31;;;;;;;;;;;;;;;;;;5081338;28;19920;-73
2023/01/28 00:40:57;;;;;;;;;;;;;;;;;;5072276;28;19928;-76
2023/01/28 00:43:22;;;;;;;;;;;;;;;;;;5083060;28;19988;-77
2023/01/28 00:45:48;;;;;;;;;;;;;;;;;;5080992;28;19913;-76
2023/01/28 00:48:14;;;;;;;;;;;;;;;;;;5064873;28;20019;-77
2023/01/28 00:50:40;;;;;;;;;;;;;;;;;;5059742;28;20280;-75
2023/01/28 00:53:06;;;;;;;;;;;;;;;;;;5049830;28;19940;-76
2023/01/28 00:55:32;;;;;;;;;;;;;;;;;;5055657;28;20558;-78
2023/01/28 00:57:58;;;;;;;;;;;;;;;;;;5062350;28;19927;-76
2023/01/28 01:00:24;;;;;;;;;;;;;;;;;;5064823;28;19927;-75
2023/01/28 01:02:50;;;;;;;;;;;;;;;;;;5045052;28;19937;-77
2023/01/28 01:05:16;;;;;;;;;;;;;;;;;;5059178;28;19920;-77
2023/01/28 01:07:42;;;;;;;;;;;;;;;;;;5082810;28;19916;-75
2023/01/28 01:10:08;;;;;;;;;;;;;;;;;;5052513;28;20641;-79
2023/01/28 01:12:34;;;;;;;;;;;;;;;;;;5048349;28;19924;-77
2023/01/28 01:15:00;;;;;;;;;;;;;;;;;;5064613;28;19943;-74
2023/01/28 01:17:25;;;;;;;;;;;;;;;;;;5050101;28;20368;-75
2023/01/28 01:19:51;;;;;;;;;;;;;;;;;;5061638;28;19926;-75
2023/01/28 01:22:17;;;;;;;;;;;;;;;;;;5069824;28;19920;-73
2023/01/28 01:24:43;;;;;;;;;;;;;;;;;;5065049;28;19930;-75
2023/01/28 01:27:09;;;;;;;;;;;;;;;;;;5062100;28;19959;-77
2023/01/28 01:29:35;;;;;;;;;;;;;;;;;;5050938;28;19927;-73
2023/01/28 01:32:01;;;;;;;;;;;;;;;;;;5047575;28;19920;-77
2023/01/28 01:34:27;;;;;;;;;;;;;;;;;;5047967;28;19992;-78
2023/01/28 01:36:53;;;;;;;;;;;;;;;;;;5064934;28;19912;-75
2023/01/28 01:39:19;;;;;;;;;;;;;;;;;;5064945;28;19970;-75
2023/01/28 01:41:44;;;;;;;;;;;;;;;;;;5066276;28;20013;-76
2023/01/28 01:44:12;;;;;;;;;;;;;;;;;;5068287;28;21185;-75
2023/01/28 01:46:38;;;;;;;;;;;;;;;;;;5038382;28;19920;-76
2023/01/28 01:49:04;;;;;;;;;;;;;;;;;;5044001;28;19948;-75
2023/01/28 01:51:30;;;;;;;;;;;;;;;;;;5059170;28;20618;-79
2023/01/28 01:53:56;;;;;;;;;;;;;;;;;;5064981;28;19924;-75
2023/01/28 01:56:21;;;;;;;;;;;;;;;;;;5048727;28;19970;-73
2023/01/28 01:58:47;;;;;;;;;;;;;;;;;;5062828;28;19926;-77
2023/01/28 02:01:13;;;;;;;;;;;;;;;;;;5059863;28;19916;-73
2023/01/28 02:03:39;;;;;;;;;;;;;;;;;;5054477;22;1731971;-53
2023/01/28 02:06:05;;;;;;;;;;;;;;;;;;5083120;28;19924;-55
2023/01/28 02:08:31;;;;;;;;;;;;;;;;;;5073024;28;19945;-55
2023/01/28 02:10:57;;;;;;;;;;;;;;;;;;5046068;28;24796;-55
2023/01/28 02:13:23;;;;;;;;;;;;;;;;;;5070947;28;20473;-52
2023/01/28 02:15:49;;;;;;;;;;;;;;;;;;5072467;28;21545;-54
2023/01/28 02:18:15;;;;;;;;;;;;;;;;;;5069136;28;20049;-54
2023/01/28 02:20:41;;;;;;;;;;;;;;;;;;5067521;28;19920;-54
2023/01/28 02:23:07;;;;;;;;;;;;;;;;;;5070111;28;19926;-55
2023/01/28 02:25:33;;;;;;;;;;;;;;;;;;5067697;28;19919;-54
2023/01/28 02:27:59;;;;;;;;;;;;;;;;;;5068915;28;19956;-54
2023/01/28 02:30:25;;;;;;;;;;;;;;;;;;5069987;28;21325;-56
2023/01/28 02:32:51;;;;;;;;;;;;;;;;;;5066188;28;19923;-54
2023/01/28 02:35:16;;;;;;;;;;;;;;;;;;5070673;27;20044;-54
2023/01/28 02:37:42;;;;;;;;;;;;;;;;;;5071072;28;20582;-53
2023/01/28 02:40:08;;;;;;;;;;;;;;;;;;5069617;28;19916;-53
2023/01/28 02:42:34;;;;;;;;;;;;;;;;;;5058598;28;19923;-54
2023/01/28 02:45:00;;;;;;;;;;;;;;;;;;5062788;27;20079;-55
2023/01/28 02:50:11;;;;;;;;;;;;;;;;;;5083213;28;20015;-53
2023/01/28 02:55:21;;;;;;;;;;;;;;;;;;5082914;28;19923;-54
2023/01/28 02:57:47;;;;;;;;;;;;;;;;;;5083581;28;19920;-54
2023/01/28 03:00:13;;;;;;;;;;;;;;;;;;5081885;28;20426;-54
2023/01/28 03:02:39;;;;;;;;;;;;;;;;;;5080902;28;19960;-54
2023/01/28 03:05:05;;;;;;;;;;;;;;;;;;5082731;28;20470;-53
2023/01/28 03:07:31;;;;;;;;;;;;;;;;;;5081150;28;19916;-53
2023/01/28 03:09:57;;;;;;;;;;;;;;;;;;5071270;28;19915;-53
2023/01/28 03:37:07;;;;;;;;;;;;;;;;;;5069164;28;19941;-54
2023/01/28 03:39:33;;;;;;;;;;;;;;;;;;5061843;28;20374;-54
2023/01/28 03:41:59;;;;;;;;;;;;;;;;;;5065778;28;19928;-53
2023/01/28 03:47:10;;;;;;;;;;;;;;;;;;5065591;28;19965;-53
2023/01/28 03:49:36;;;;;;;;;;;;;;;;;;5068137;28;20828;-55
2023/01/28 03:52:02;;;;;;;;;;;;;;;;;;5068273;28;19919;-55
2023/01/28 03:54:28;;;;;;;;;;;;;;;;;;5064549;28;20382;-54
2023/01/28 03:56:53;;;;;;;;;;;;;;;;;;5064393;28;19997;-54
2023/01/28 03:59:19;;;;;;;;;;;;;;;;;;5067666;28;20010;-54
2023/01/28 04:01:45;;;;;;;;;;;;;;;;;;5067918;28;19920;-53
2023/01/28 04:04:21;;;;;;;;;;;;;;;;;;5068759;28;20504;-53
2023/01/28 04:06:47;;;;;;;;;;;;;;;;;;5090889;28;19916;-53
2023/01/28 04:09:13;;;;;;;;;;;;;;;;;;5084254;28;19919;-53
2023/01/28 04:11:39;;;;;;;;;;;;;;;;;;5085773;28;19919;-54
2023/01/28 04:14:05;;;;;;;;;;;;;;;;;;5056070;28;20203;-54
2023/01/28 04:16:31;;;;;;;;;;;;;;;;;;5075018;28;19916;-56
2023/01/28 04:18:58;;;;;;;;;;;;;;;;;;5071192;28;20272;-53
2023/01/28 04:21:23;;;;;;;;;;;;;;;;;;5078811;28;19916;-54
2023/01/28 04:23:49;;;;;;;;;;;;;;;;;;5081203;28;19927;-54
2023/01/28 04:26:15;;;;;;;;;;;;;;;;;;5069519;28;19927;-54
2023/01/28 04:28:41;;;;;;;;;;;;;;;;;;5079299;28;20474;-55
2023/01/28 04:31:07;;;;;;;;;;;;;;;;;;5089515;28;19916;-53
2023/01/28 04:33:33;;;;;;;;;;;;;;;;;;5077583;28;20533;-55
2023/01/28 04:35:59;;;;;;;;;;;;;;;;;;5062711;28;19996;-52
2023/01/28 04:38:25;;;;;;;;;;;;;;;;;;5071176;28;19915;-54
2023/01/28 04:40:50;;;;;;;;;;;;;;;;;;5068433;28;20410;-54
2023/01/28 04:43:16;;;;;;;;;;;;;;;;;;5065539;28;20068;-54
2023/01/28 04:45:42;;;;;;;;;;;;;;;;;;5050295;28;20330;-54
2023/01/28 04:48:08;;;;;;;;;;;;;;;;;;5060180;28;19930;-55
2023/01/28 04:50:34;;;;;;;;;;;;;;;;;;5075428;28;19951;-52
2023/01/28 04:53:00;;;;;;;;;;;;;;;;;;5066806;28;20658;-54
2023/01/28 04:55:26;;;;;;;;;;;;;;;;;;5070085;28;19920;-55
2023/01/28 04:57:52;;;;;;;;;;;;;;;;;;5070909;28;20192;-55
2023/01/28 05:00:18;;;;;;;;;;;;;;;;;;5069748;28;19927;-56
2023/01/28 05:02:43;;;;;;;;;;;;;;;;;;5070338;28;20644;-55
2023/01/28 05:05:09;;;;;;;;;;;;;;;;;;5071398;28;20179;-54
2023/01/28 05:07:35;;;;;;;;;;;;;;;;;;5069698;28;19931;-54
2023/01/28 05:10:01;;;;;;;;;;;;;;;;;;5065231;28;19912;-55
2023/01/28 05:12:28;;;;;;;;;;;;;;;;;;5061649;28;19920;-54
2023/01/28 05:14:54;;;;;;;;;;;;;;;;;;5073569;28;20184;-54
2023/01/28 05:17:20;;;;;;;;;;;;;;;;;;5086544;28;19923;-53
2023/01/28 05:19:46;;;;;;;;;;;;;;;;;;5081132;28;20484;-56
2023/01/28 05:22:12;;;;;;;;;;;;;;;;;;5068171;28;19966;-53
2023/01/28 05:24:37;;;;;;;;;;;;;;;;;;5067314;28;19955;-53
2023/01/28 05:27:03;;;;;;;;;;;;;;;;;;5068887;28;21167;-54
2023/01/28 05:29:29;;;;;;;;;;;;;;;;;;5068443;28;19923;-53
2023/01/28 05:31:55;;;;;;;;;;;;;;;;;;5066300;28;19920;-54
2023/01/28 05:34:21;;;;;;;;;;;;;;;;;;5070182;28;19924;-54
2023/01/28 05:36:47;;;;;;;;;;;;;;;;;;5062813;28;20257;-54
2023/01/28 05:39:13;;;;;;;;;;;;;;;;;;5069129;28;19924;-55
2023/01/28 05:41:38;;;;;;;;;;;;;;;;;;5073570;28;20295;-54
2023/01/28 05:44:04;;;;;;;;;;;;;;;;;;5069988;28;19920;-54
2023/01/28 05:46:30;;;;;;;;;;;;;;;;;;5068169;28;20485;-55
2023/01/28 05:48:56;;;;;;;;;;;;;;;;;;5085261;28;19916;-52
2023/01/28 05:51:22;;;;;;;;;;;;;;;;;;5090608;28;19915;-54
2023/01/28 05:53:48;;;;;;;;;;;;;;;;;;5075318;28;19920;-53
2023/01/28 05:56:14;;;;;;;;;;;;;;;;;;5084966;28;20754;-53
2023/01/28 05:58:39;;;;;;;;;;;;;;;;;;5084898;28;19920;-53
2023/01/28 06:01:05;;;;;;;;;;;;;;;;;;5086723;28;19961;-54
2023/01/28 06:03:31;;;;;;;;;;;;;;;;;;5086251;28;19915;-53
2023/01/28 06:05:57;;;;;;;;;;;;;;;;;;5088969;28;20328;-53
2023/01/28 06:08:23;;;;;;;;;;;;;;;;;;5083784;28;19941;-52
2023/01/28 06:10:49;;;;;;;;;;;;;;;;;;5087851;28;20018;-53
2023/01/28 06:13:15;;;;;;;;;;;;;;;;;;5086065;28;19924;-54
2023/01/28 06:15:40;;;;;;;;;;;;;;;;;;5086681;28;19999;-53
2023/01/28 06:18:06;;;;;;;;;;;;;;;;;;5085159;28;19916;-55
2023/01/28 06:20:32;;;;;;;;;;;;;;;;;;5088746;28;20462;-55
2023/01/28 06:22:58;;;;;;;;;;;;;;;;;;5086346;28;20491;-53
2023/01/28 06:25:24;;;;;;;;;;;;;;;;;;5079870;27;19916;-54
2023/01/28 06:27:50;;;;;;;;;;;;;;;;;;5082911;28;19922;-54
2023/01/28 06:30:16;;;;;;;;;;;;;;;;;;5080783;28;20283;-52
2023/01/28 06:32:42;;;;;;;;;;;;;;;;;;5081741;28;19919;-56
2023/01/28 06:35:08;;;;;;;;;;;;;;;;;;5083602;28;19965;-54
2023/01/28 06:37:34;;;;;;;;;;;;;;;;;;5081458;28;19915;-53
2023/01/28 06:40:00;;;;;;;;;;;;;;;;;;5084904;28;19916;-53
2023/01/28 06:42:26;;;;;;;;;;;;;;;;;;5086054;28;19912;-54
2023/01/28 06:44:52;;;;;;;;;;;;;;;;;;5084853;28;20887;-53
2023/01/28 06:47:17;;;;;;;;;;;;;;;;;;5088639;28;19969;-54
2023/01/28 06:49:43;;;;;;;;;;;;;;;;;;5082095;28;19916;-53
2023/01/28 06:52:09;;;;;;;;;;;;;;;;;;5086267;28;19915;-54
2023/01/28 06:54:35;;;;;;;;;;;;;;;;;;5084768;28;19920;-55
2023/01/28 06:57:01;;;;;;;;;;;;;;;;;;5087923;28;20393;-52
2023/01/28 06:59:27;;;;;;;;;;;;;;;;;;5086733;28;20013;-53
2023/01/28 07:01:53;;;;;;;;;;;;;;;;;;5085542;28;19963;-55
2023/01/28 07:04:19;;;;;;;;;;;;;;;;;;5086305;28;19927;-54
2023/01/28 07:06:45;;;;;;;;;;;;;;;;;;5083166;28;20387;-54
2023/01/28 07:09:11;;;;;;;;;;;;;;;;;;5082555;28;19916;-53
2023/01/28 07:11:37;;;;;;;;;;;;;;;;;;5083561;28;20563;-54
2023/01/28 07:14:03;;;;;;;;;;;;;;;;;;5079835;28;19928;-55
2023/01/28 07:16:29;;;;;;;;;;;;;;;;;;5078705;28;20351;-53
2023/01/28 07:18:55;;;;;;;;;;;;;;;;;;5079126;28;19915;-53
2023/01/28 07:21:21;;;;;;;;;;;;;;;;;;5086938;28;20342;-56
2023/01/28 07:23:47;;;;;;;;;;;;;;;;;;5082220;28;19920;-53
2023/01/28 07:26:14;;;;;;;;;;;;;;;;;;5083807;28;19969;-53
2023/01/28 07:28:40;;;;;;;;;;;;;;;;;;5083553;28;20621;-53
2023/01/28 07:31:06;;;;;;;;;;;;;;;;;;5082821;28;19941;-53
2023/01/28 07:33:31;;;;;;;;;;;;;;;;;;5083098;28;19920;-54
2023/01/28 07:35:57;;;;;;;;;;;;;;;;;;5087978;28;19916;-54
2023/01/28 07:38:23;;;;;;;;;;;;;;;;;;5086043;28;19942;-55
2023/01/28 07:40:49;;;;;;;;;;;;;;;;;;5091641;28;19916;-53
2023/01/28 07:43:15;;;;;;;;;;;;;;;;;;5091191;28;19922;-53
2023/01/28 07:45:41;;;;;;;;;;;;;;;;;;5088900;28;20001;-53
2023/01/28 07:48:07;;;;;;;;;;;;;;;;;;5091292;28;19920;-53
2023/01/28 07:50:33;;;;;;;;;;;;;;;;;;5090372;28;20021;-54
2023/01/28 07:52:59;;;;;;;;;;;;;;;;;;5074644;28;19931;-53
2023/01/28 07:55:24;;;;;;;;;;;;;;;;;;5088515;28;19951;-53
2023/01/28 07:57:50;;;;;;;;;;;;;;;;;;5086566;28;19961;-52
2023/01/28 08:00:16;;;;;;;;;;;;;;;;;;5079911;28;20294;-54
2023/01/28 08:02:46;;;;;;;;;;;;;;;;;;5081543;28;19920;-56
2023/01/28 08:05:12;;;;;;;;;;;;;;;;;;5085681;28;20329;-55
2023/01/28 08:07:38;;;;;;;;;;;;;;;;;;5087462;28;19922;-53
2023/01/28 08:10:04;;;;;;;;;;;;;;;;;;5081513;28;20706;-53
2023/01/28 08:12:30;;;;;;;;;;;;;;;;;;5092667;28;19916;-56
2023/01/28 08:14:56;;;;;;;;;;;;;;;;;;5083853;28;20410;-53
2023/01/28 08:17:22;;;;;;;;;;;;;;;;;;5086484;28;19972;-52
2023/01/28 08:19:48;;;;;;;;;;;;;;;;;;5087391;28;19915;-54
2023/01/28 08:22:13;;;;;;;;;;;;;;;;;;5087151;28;21022;-54
2023/01/28 08:24:39;;;;;;;;;;;;;;;;;;5085734;28;20010;-54
2023/01/28 08:27:05;;;;;;;;;;;;;;;;;;5087344;28;20111;-54
2023/01/28 08:29:31;;;;;;;;;;;;;;;;;;5080874;28;19920;-53
2023/01/28 08:31:57;;;;;;;;;;;;;;;;;;5087854;28;19927;-53
2023/01/28 08:34:23;;;;;;;;;;;;;;;;;;5077285;28;20383;-53
2023/01/28 08:36:49;;;;;;;;;;;;;;;;;;5081620;27;19920;-52
2023/01/28 08:39:14;;;;;;;;;;;;;;;;;;5089790;28;19922;-55
2023/01/28 08:41:40;;;;;;;;;;;;;;;;;;5090726;28;19923;-55
2023/01/28 08:44:06;;;;;;;;;;;;;;;;;;5089392;28;19915;-54
2023/01/28 08:46:32;;;;;;;;;;;;;;;;;;5089150;28;19916;-53
2023/01/28 08:48:58;;;;;;;;;;;;;;;;;;5087192;28;20003;-54
2023/01/28 08:51:24;;;;;;;;;;;;;;;;;;5059300;28;20315;-53
2023/01/28 08:53:50;;;;;;;;;;;;;;;;;;5090538;28;20042;-54
2023/01/28 08:56:16;;;;;;;;;;;;;;;;;;5088607;28;19927;-54
2023/01/28 08:58:42;;;;;;;;;;;;;;;;;;5086097;28;24372;-54
2023/01/28 09:01:07;;;;;;;;;;;;;;;;;;5081262;28;20358;-53
2023/01/28 09:03:34;;;;;;;;;;;;;;;;;;5074673;28;19923;-54
2023/01/28 09:06:01;;;;;;;;;;;;;;;;;;5084821;28;20194;-54
2023/01/28 09:08:26;;;;;;;;;;;;;;;;;;5082016;28;19920;-56
2023/01/28 09:10:52;;;;;;;;;;;;;;;;;;5075342;28;19989;-54
2023/01/28 09:13:18;;;;;;;;;;;;;;;;;;5088896;28;19930;-53
2023/01/28 09:15:44;;;;;;;;;;;;;;;;;;5085940;28;19916;-53
2023/01/28 09:18:10;;;;;;;;;;;;;;;;;;5086992;27;20287;-55
2023/01/28 09:20:36;;;;;;;;;;;;;;;;;;5075428;28;19919;-55
2023/01/28 09:23:02;;;;;;;;;;;;;;;;;;5073928;28;19947;-53
2023/01/28 09:25:28;;;;;;;;;;;;;;;;;;5082618;28;20391;-53
2023/01/28 09:27:53;;;;;;;;;;;;;;;;;;5075754;28;19916;-52
2023/01/28 09:30:19;;;;;;;;;;;;;;;;;;5079700;28;20387;-55
2023/01/28 09:32:45;;;;;;;;;;;;;;;;;;5074646;28;19924;-54
2023/01/28 09:35:11;;;;;;;;;;;;;;;;;;5082966;28;19916;-55
2023/01/28 09:37:37;;;;;;;;;;;;;;;;;;5080291;28;19963;-56
2023/01/28 09:40:03;;;;;;;;;;;;;;;;;;5075504;28;19916;-52
2023/01/28 09:42:29;;;;;;;;;;;;;;;;;;5071817;28;20628;-52
2023/01/28 09:44:55;;;;;;;;;;;;;;;;;;5083818;28;19920;-53
2023/01/28 09:47:20;;;;;;;;;;;;;;;;;;5085960;28;19923;-53
2023/01/28 09:49:46;;;;;;;;;;;;;;;;;;5080666;28;19974;-54
2023/01/28 09:52:12;;;;;;;;;;;;;;;;;;5084166;28;20006;-53
2023/01/28 09:54:38;;;;;;;;;;;;;;;;;;5076249;28;20024;-53
2023/01/28 09:57:05;;;;;;;;;;;;;;;;;;5076954;28;19917;-53
2023/01/28 09:59:31;;;;;;;;;;;;;;;;;;5079485;28;19915;-52
2023/01/28 10:01:57;;;;;;;;;;;;;;;;;;5077755;28;19923;-54
2023/01/28 10:04:23;;;;;;;;;;;;;;;;;;5085054;28;19963;-53
2023/01/28 10:06:49;;;;;;;;;;;;;;;;;;5083043;28;19945;-54
2023/01/28 10:09:15;;;;;;;;;;;;;;;;;;5079062;28;19920;-55
2023/01/28 10:11:41;;;;;;;;;;;;;;;;;;5080289;28;19923;-53
2023/01/28 10:14:06;;;;;;;;;;;;;;;;;;5058917;28;20451;-54
2023/01/28 10:16:32;;;;;;;;;;;;;;;;;;5079699;28;19912;-52
2023/01/28 10:18:58;;;;;;;;;;;;;;;;;;5080335;28;19928;-55
2023/01/28 10:21:24;;;;;;;;;;;;;;;;;;5079076;28;19916;-53
2023/01/28 10:23:50;;;;;;;;;;;;;;;;;;5082977;28;20008;-53
2023/01/28 10:26:16;;;;;;;;;;;;;;;;;;5081061;28;20486;-54
2023/01/28 10:28:42;;;;;;;;;;;;;;;;;;5078491;28;20006;-52
2023/01/28 10:31:07;;;;;;;;;;;;;;;;;;5075867;28;19942;-56
2023/01/28 10:33:33;;;;;;;;;;;;;;;;;;5077892;28;19920;-53
2023/01/28 10:35:59;;;;;;;;;;;;;;;;;;5084193;28;20291;-53
2023/01/28 10:38:25;;;;;;;;;;;;;;;;;;5075020;28;19916;-53
2023/01/28 10:40:51;;;;;;;;;;;;;;;;;;5075322;28;19923;-53
2023/01/28 10:43:17;;;;;;;;;;;;;;;;;;5083490;28;20492;-54
2023/01/28 10:45:43;;;;;;;;;;;;;;;;;;5086761;28;19931;-52
2023/01/28 10:48:09;;;;;;;;;;;;;;;;;;5081853;28;19919;-54
2023/01/28 10:50:35;;;;;;;;;;;;;;;;;;5076719;28;19946;-53
2023/01/28 10:53:01;;;;;;;;;;;;;;;;;;5068349;28;20193;-52
2023/01/28 10:55:26;;;;;;;;;;;;;;;;;;5082086;28;19923;-53
2023/01/28 10:57:52;;;;;;;;;;;;;;;;;;5082097;27;20387;-53
2023/01/28 11:00:18;;;;;;;;;;;;;;;;;;5086857;28;19951;-53
2023/01/28 11:02:44;;;;;;;;;;;;;;;;;;5082453;28;20280;-53
2023/01/28 11:05:10;;;;;;;;;;;;;;;;;;5082642;28;19963;-53
2023/01/28 11:07:36;;;;;;;;;;;;;;;;;;5087284;28;19920;-54
2023/01/28 11:10:02;;;;;;;;;;;;;;;;;;5083402;28;19924;-52
2023/01/28 11:12:28;;;;;;;;;;;;;;;;;;5084113;28;19969;-54
2023/01/28 11:14:54;;;;;;;;;;;;;;;;;;5078679;28;19963;-55
2023/01/28 11:17:20;;;;;;;;;;;;;;;;;;5084971;28;19920;-54
2023/01/28 11:19:46;;;;;;;;;;;;;;;;;;5083639;28;19939;-55
2023/01/28 11:22:11;;;;;;;;;;;;;;;;;;5077796;28;25480;-52
2023/01/28 11:24:37;;;;;;;;;;;;;;;;;;5077992;28;20043;-56
2023/01/28 11:27:03;;;;;;;;;;;;;;;;;;5082566;28;19916;-54
2023/01/28 11:29:29;;;;;;;;;;;;;;;;;;5082849;28;19920;-53
2023/01/28 11:31:55;;;;;;;;;;;;;;;;;;5083736;28;20739;-53
2023/01/28 11:34:21;;;;;;;;;;;;;;;;;;5082096;28;19924;-54
2023/01/28 11:36:47;;;;;;;;;;;;;;;;;;5082547;28;20038;-53
2023/01/28 11:39:13;;;;;;;;;;;;;;;;;;5084938;28;19915;-53
2023/01/28 11:41:38;;;;;;;;;;;;;;;;;;5083721;28;20286;-52
2023/01/28 11:44:04;;;;;;;;;;;;;;;;;;5081883;28;19969;-53
2023/01/28 11:46:30;;;;;;;;;;;;;;;;;;5071342;28;20391;-53
2023/01/28 11:48:56;;;;;;;;;;;;;;;;;;5084706;28;20058;-52
2023/01/28 11:51:22;;;;;;;;;;;;;;;;;;5084001;28;19969;-53
2023/01/28 11:53:48;;;;;;;;;;;;;;;;;;5083608;28;20024;-55
2023/01/28 11:56:14;;;;;;;;;;;;;;;;;;5084752;28;20390;-52
2023/01/28 11:58:40;;;;;;;;;;;;;;;;;;5084761;28;19920;-54
2023/01/28 12:01:05;;;;;;;;;;;;;;;;;;5086043;28;19915;-53
2023/01/28 12:03:31;;;;;;;;;;;;;;;;;;5082648;28;19920;-54
2023/01/28 12:05:57;;;;;;;;;;;;;;;;;;5086011;28;20329;-53
2023/01/28 12:08:24;;;;;;;;;;;;;;;;;;5086118;28;20379;-54
2023/01/28 12:10:49;;;;;;;;;;;;;;;;;;5083107;28;19920;-53
2023/01/28 12:13:15;;;;;;;;;;;;;;;;;;5088842;28;19932;-53
2023/01/28 12:15:41;;;;;;;;;;;;;;;;;;5088361;28;19955;-53
2023/01/28 12:18:07;;;;;;;;;;;;;;;;;;5086100;28;19908;-55
2023/01/28 12:20:33;;;;;;;;;;;;;;;;;;5087294;28;19969;-53
2023/01/28 12:22:59;;;;;;;;;;;;;;;;;;5092057;28;19916;-53
2023/01/28 12:25:25;;;;;;;;;;;;;;;;;;5070186;28;20008;-53
2023/01/28 12:27:51;;;;;;;;;;;;;;;;;;5082779;28;19961;-54
2023/01/28 12:30:18;;;;;;;;;;;;;;;;;;5082602;28;20459;-52
2023/01/28 12:32:44;;;;;;;;;;;;;;;;;;5081715;27;19916;-53
2023/01/28 12:35:09;;;;;;;;;;;;;;;;;;5079974;28;20452;-53
2023/01/28 12:37:35;;;;;;;;;;;;;;;;;;5079942;28;19916;-54
2023/01/28 12:40:01;;;;;;;;;;;;;;;;;;5079132;28;20368;-53
2023/01/28 12:42:27;;;;;;;;;;;;;;;;;;5068404;28;19950;-54
2023/01/28 12:44:53;;;;;;;;;;;;;;;;;;5079132;28;19916;-54
2023/01/28 12:47:19;;;;;;;;;;;;;;;;;;5087248;28;19920;-54
2023/01/28 12:49:45;;;;;;;;;;;;;;;;;;5088807;28;20040;-53
2023/01/28 12:52:11;;;;;;;;;;;;;;;;;;5081277;28;20389;-55
2023/01/28 12:54:36;;;;;;;;;;;;;;;;;;5066768;27;21743;-55
2023/01/28 12:57:02;;;;;;;;;;;;;;;;;;5054861;28;19922;-56
2023/01/28 12:59:28;;;;;;;;;;;;;;;;;;5062951;28;19923;-55
2023/01/28 13:01:54;;;;;;;;;;;;;;;;;;5070839;28;19924;-54
2023/01/28 13:04:20;;;;;;;;;;;;;;;;;;5076297;28;20353;-52
2023/01/28 13:06:46;;;;;;;;;;;;;;;;;;5066578;28;20656;-54
2023/01/28 13:09:12;;;;;;;;;;;;;;;;;;5081372;28;20060;-53
2023/01/28 13:11:38;;;;;;;;;;;;;;;;;;5085983;28;19969;-54
2023/01/28 13:14:03;;;;;;;;;;;;;;;;;;5062849;28;20027;-53
2023/01/28 13:16:29;;;;;;;;;;;;;;;;;;5069584;28;19967;-55
2023/01/28 13:18:55;;;;;;;;;;;;;;;;;;5053317;28;20393;-54
2023/01/28 13:21:21;;;;;;;;;;;;;;;;;;5066961;28;21806;-55
2023/01/28 13:23:47;;;;;;;;;;;;;;;;;;5065582;28;19919;-55
2023/01/28 13:26:13;;;;;;;;;;;;;;;;;;5063745;28;19915;-53
2023/01/28 13:28:39;;;;;;;;;;;;;;;;;;5072097;28;20901;-54
2023/01/28 13:31:04;;;;;;;;;;;;;;;;;;5058531;28;20717;-53
2023/01/28 13:33:30;;;;;;;;;;;;;;;;;;5060135;28;20382;-56
2023/01/28 13:35:56;;;;;;;;;;;;;;;;;;5072824;28;20391;-54
2023/01/28 13:38:23;;;;;;;;;;;;;;;;;;5083626;28;19927;-55
2023/01/28 13:40:49;;;;;;;;;;;;;;;;;;5078696;28;20474;-52
2023/01/28 13:43:15;;;;;;;;;;;;;;;;;;5079769;28;19920;-53
2023/01/28 13:45:41;;;;;;;;;;;;;;;;;;5078648;28;20359;-54
2023/01/28 13:48:06;;;;;;;;;;;;;;;;;;5066770;28;19915;-56
2023/01/28 13:50:32;;;;;;;;;;;;;;;;;;5079963;28;19923;-53
2023/01/28 13:52:58;;;;;;;;;;;;;;;;;;5077302;28;19924;-52
2023/01/28 13:55:24;;;;;;;;;;;;;;;;;;5079942;28;19912;-53
2023/01/28 13:57:50;;;;;;;;;;;;;;;;;;5076506;28;20689;-55
2023/01/28 14:00:17;;;;;;;;;;;;;;;;;;5075916;28;20411;-55
2023/01/28 14:02:43;;;;;;;;;;;;;;;;;;5079808;28;21189;-54
2023/01/28 14:05:09;;;;;;;;;;;;;;;;;;5084222;28;20018;-54
2023/01/28 14:07:35;;;;;;;;;;;;;;;;;;5079324;28;20205;-53
2023/01/28 14:10:01;;;;;;;;;;;;;;;;;;5081148;28;19957;-55
2023/01/28 14:12:27;;;;;;;;;;;;;;;;;;5077565;28;20692;-52
2023/01/28 14:14:53;;;;;;;;;;;;;;;;;;5081783;28;21508;-53
2023/01/28 14:17:19;;;;;;;;;;;;;;;;;;5061913;28;20374;-55
2023/01/28 14:19:45;;;;;;;;;;;;;;;;;;5074129;28;19955;-53
2023/01/28 14:22:11;;;;;;;;;;;;;;;;;;5087354;28;19919;-52
2023/01/28 14:24:37;;;;;;;;;;;;;;;;;;5084911;28;20368;-54
2023/01/28 14:27:03;;;;;;;;;;;;;;;;;;5083804;28;19923;-54
2023/01/28 14:29:29;;;;;;;;;;;;;;;;;;5084409;28;19922;-52
2023/01/28 14:31:55;;;;;;;;;;;;;;;;;;5079725;28;19912;-52
2023/01/28 14:34:21;;;;;;;;;;;;;;;;;;5077728;28;19924;-53
2023/01/28 14:36:47;;;;;;;;;;;;;;;;;;5076939;28;20494;-53
2023/01/28 14:39:13;;;;;;;;;;;;;;;;;;5075981;28;19951;-55
2023/01/28 14:41:39;;;;;;;;;;;;;;;;;;5065946;27;19982;-53
2023/01/28 14:44:05;;;;;;;;;;;;;;;;;;5080897;28;20961;-54
2023/01/28 14:46:31;;;;;;;;;;;;;;;;;;5084766;28;19915;-53
2023/01/28 14:48:57;;;;;;;;;;;;;;;;;;5083690;28;19969;-54
2023/01/28 14:51:22;;;;;;;;;;;;;;;;;;5080234;28;19922;-53
2023/01/28 14:53:48;;;;;;;;;;;;;;;;;;5078245;28;20341;-53
2023/01/28 14:56:14;;;;;;;;;;;;;;;;;;5082407;28;19920;-53
2023/01/28 14:58:40;;;;;;;;;;;;;;;;;;5082742;28;19923;-52
2023/01/28 15:01:07;;;;;;;;;;;;;;;;;;5089674;28;20316;-55
2023/01/28 15:03:34;;;;;;;;;;;;;;;;;;5074338;28;19927;-53
2023/01/28 15:06:00;;;;;;;;;;;;;;;;;;5073744;28;19970;-51
2023/01/28 15:08:26;;;;;;;;;;;;;;;;;;5075540;28;20030;-52
2023/01/28 15:10:51;;;;;;;;;;;;;;;;;;5079282;28;19912;-54
2023/01/28 15:13:17;;;;;;;;;;;;;;;;;;5078150;28;19920;-54
2023/01/28 15:15:43;;;;;;;;;;;;;;;;;;5078305;28;20333;-54
2023/01/28 15:18:09;;;;;;;;;;;;;;;;;;5084544;28;19921;-53
2023/01/28 15:20:35;;;;;;;;;;;;;;;;;;5066001;28;20011;-53
2023/01/28 15:23:01;;;;;;;;;;;;;;;;;;5081014;28;19920;-52
2023/01/28 15:25:27;;;;;;;;;;;;;;;;;;5079257;28;19916;-55
2023/01/28 15:27:53;;;;;;;;;;;;;;;;;;5086674;28;19922;-55
2023/01/28 15:30:18;;;;;;;;;;;;;;;;;;5085741;28;19916;-54
2023/01/28 15:32:44;;;;;;;;;;;;;;;;;;5085201;28;20379;-54
2023/01/28 15:35:12;;;;;;;;;;;;;;;;;;5080048;28;19912;-52
2023/01/28 15:37:38;;;;;;;;;;;;;;;;;;5081756;28;20337;-53
2023/01/28 15:40:07;;;;;;;;;;;;;;;;;;5084609;28;19919;-52
2023/01/28 15:42:33;;;;;;;;;;;;;;;;;;5082689;28;19968;-54
2023/01/28 15:44:59;;;;;;;;;;;;;;;;;;5082749;28;19924;-52
2023/01/28 15:47:25;;;;;;;;;;;;;;;;;;5087393;28;20492;-52
2023/01/28 15:49:51;;;;;;;;;;;;;;;;;;5075298;28;19942;-53
2023/01/28 15:52:17;;;;;;;;;;;;;;;;;;5084758;28;19927;-53
2023/01/28 15:54:43;;;;;;;;;;;;;;;;;;5080345;28;19920;-53
2023/01/28 15:57:09;;;;;;;;;;;;;;;;;;5081182;28;20519;-52
2023/01/28 15:59:35;;;;;;;;;;;;;;;;;;5066925;28;21472;-54
2023/01/28 16:02:01;;;;;;;;;;;;;;;;;;5083882;27;19919;-52
2023/01/28 16:04:27;;;;;;;;;;;;;;;;;;5086995;28;19926;-52
2023/01/28 16:06:52;;;;;;;;;;;;;;;;;;5086395;28;19916;-52
2023/01/28 16:09:18;;;;;;;;;;;;;;;;;;5083878;28;20002;-52
2023/01/28 16:11:44;;;;;;;;;;;;;;;;;;5088933;28;20122;-54
2023/01/28 16:14:10;;;;;;;;;;;;;;;;;;5083787;28;20371;-54
2023/01/28 16:16:36;;;;;;;;;;;;;;;;;;5061986;28;19923;-55
2023/01/28 16:19:02;;;;;;;;;;;;;;;;;;5074157;28;19916;-53
2023/01/28 16:21:28;;;;;;;;;;;;;;;;;;5076401;28;19920;-54
2023/01/28 16:23:54;;;;;;;;;;;;;;;;;;5070843;27;19916;-53
2023/01/28 16:26:20;;;;;;;;;;;;;;;;;;5067331;28;19945;-55
2023/01/28 16:28:45;;;;;;;;;;;;;;;;;;5066548;28;20012;-54
2023/01/28 16:31:11;;;;;;;;;;;;;;;;;;5068280;28;19920;-53
2023/01/28 16:33:37;;;;;;;;;;;;;;;;;;5067583;28;19930;-53
2023/01/28 16:36:03;;;;;;;;;;;;;;;;;;5073365;28;19919;-53
2023/01/28 16:38:29;;;;;;;;;;;;;;;;;;5074993;28;20000;-55
2023/01/28 16:40:55;;;;;;;;;;;;;;;;;;5073251;28;20007;-52
2023/01/28 16:43:21;;;;;;;;;;;;;;;;;;5062691;28;19927;-54
2023/01/28 16:45:47;;;;;;;;;;;;;;;;;;5064972;28;19920;-54
2023/01/28 16:48:12;;;;;;;;;;;;;;;;;;5066200;28;19923;-54
2023/01/28 16:50:38;;;;;;;;;;;;;;;;;;5064833;27;20348;-54
2023/01/28 16:53:04;;;;;;;;;;;;;;;;;;5071844;28;19920;-55
2023/01/28 16:55:30;;;;;;;;;;;;;;;;;;5064955;28;19973;-52
2023/01/28 16:57:56;;;;;;;;;;;;;;;;;;5076835;28;20075;-53
2023/01/28 17:00:22;;;;;;;;;;;;;;;;;;5074013;28;20318;-54
2023/01/28 17:02:48;;;;;;;;;;;;;;;;;;5081204;28;20449;-52
2023/01/28 17:05:14;;;;;;;;;;;;;;;;;;5067362;28;19916;-54
2023/01/28 17:07:40;;;;;;;;;;;;;;;;;;5058355;28;20503;-55
2023/01/28 17:10:06;;;;;;;;;;;;;;;;;;5067871;28;19927;-52